Ruff, Washington
Current Conditions -  °F | °C
As of 2:52 PM on Tuesday 25 Nov 2014 (Local Time) from KMWH Reporting Station
Haze Haze  
Wind Chill: 35°   Ceiling: 1400
Heat Index: 40°   Visibility: 4mi
Dew Point: 39°   Wind: 7mph
Humidity: 97%   Direction: 360°N
Pressure: 30.25"   Gusts: NA
Location:  47.3463°N, 119.014°W
Report Text: KMWH 252252Z 36006KT 4SM BR BKN014 OVC027 04/04 A3025 RMK AO2 RAE2158 SLP253 P0000 T00440039
Loading
Personal Weather Stations






























Interactive Weather Map New forecast layout! Learn more

10-Day Weather Forecast

Advertisements
Track Severe Weather on mobile